sensor_id;sensor_type;location;lat;lon;timestamp;P1;durP1;ratioP1;P2;durP2;ratioP2
55362;SDS011;41244;49.242;9.060;2022-12-07T00:01:26;15.05;;;9.85;;
55362;SDS011;41244;49.242;9.060;2022-12-07T00:03:58;15.20;;;10.38;;
55362;SDS011;41244;49.242;9.060;2022-12-07T00:06:37;14.85;;;10.07;;
55362;SDS011;41244;49.242;9.060;2022-12-07T00:09:15;13.10;;;9.02;;
55362;SDS011;41244;49.242;9.060;2022-12-07T00:11:42;12.18;;;9.07;;
55362;SDS011;41244;49.242;9.060;2022-12-07T00:14:12;12.35;;;8.57;;
55362;SDS011;41244;49.242;9.060;2022-12-07T00:16:40;16.38;;;10.30;;
55362;SDS011;41244;49.242;9.060;2022-12-07T00:19:13;12.13;;;9.93;;
55362;SDS011;41244;49.242;9.060;2022-12-07T00:21:41;13.23;;;9.07;;
55362;SDS011;41244;49.242;9.060;2022-12-07T00:24:11;14.82;;;9.75;;
55362;SDS011;41244;49.242;9.060;2022-12-07T00:26:38;13.82;;;9.40;;
55362;SDS011;41244;49.242;9.060;2022-12-07T00:29:24;13.25;;;11.07;;
55362;SDS011;41244;49.242;9.060;2022-12-07T00:31:50;12.55;;;9.60;;
55362;SDS011;41244;49.242;9.060;2022-12-07T00:34:17;12.43;;;9.23;;
55362;SDS011;41244;49.242;9.060;2022-12-07T00:36:46;14.68;;;10.23;;
55362;SDS011;41244;49.242;9.060;2022-12-07T00:39:12;14.30;;;10.38;;
55362;SDS011;41244;49.242;9.060;2022-12-07T00:41:38;13.82;;;9.52;;
55362;SDS011;41244;49.242;9.060;2022-12-07T00:44:04;13.10;;;10.23;;
55362;SDS011;41244;49.242;9.060;2022-12-07T00:46:30;14.35;;;9.82;;
55362;SDS011;41244;49.242;9.060;2022-12-07T00:48:56;13.65;;;9.95;;
55362;SDS011;41244;49.242;9.060;2022-12-07T00:51:22;16.02;;;10.20;;
55362;SDS011;41244;49.242;9.060;2022-12-07T00:53:49;14.18;;;10.30;;
55362;SDS011;41244;49.242;9.060;2022-12-07T00:56:20;16.60;;;11.23;;
55362;SDS011;41244;49.242;9.060;2022-12-07T00:58:52;14.82;;;10.98;;
55362;SDS011;41244;49.242;9.060;2022-12-07T01:01:21;14.15;;;10.15;;
55362;SDS011;41244;49.242;9.060;2022-12-07T01:03:49;14.70;;;10.55;;
55362;SDS011;41244;49.242;9.060;2022-12-07T01:06:16;14.27;;;10.80;;
55362;SDS011;41244;49.242;9.060;2022-12-07T01:08:44;15.55;;;11.10;;
55362;SDS011;41244;49.242;9.060;2022-12-07T01:11:11;16.00;;;10.55;;
55362;SDS011;41244;49.242;9.060;2022-12-07T01:13:40;16.30;;;11.13;;
55362;SDS011;41244;49.242;9.060;2022-12-07T01:16:07;18.15;;;11.88;;
55362;SDS011;41244;49.242;9.060;2022-12-07T01:18:35;15.38;;;11.25;;
55362;SDS011;41244;49.242;9.060;2022-12-07T01:21:03;14.32;;;10.68;;
55362;SDS011;41244;49.242;9.060;2022-12-07T01:23:32;15.98;;;11.23;;
55362;SDS011;41244;49.242;9.060;2022-12-07T01:26:02;17.52;;;11.02;;
55362;SDS011;41244;49.242;9.060;2022-12-07T01:28:30;14.70;;;10.35;;
55362;SDS011;41244;49.242;9.060;2022-12-07T01:31:03;14.98;;;11.75;;
55362;SDS011;41244;49.242;9.060;2022-12-07T01:33:40;13.82;;;10.00;;
55362;SDS011;41244;49.242;9.060;2022-12-07T01:36:18;15.48;;;10.93;;
55362;SDS011;41244;49.242;9.060;2022-12-07T01:38:57;14.00;;;10.73;;
55362;SDS011;41244;49.242;9.060;2022-12-07T01:41:30;14.23;;;10.40;;
55362;SDS011;41244;49.242;9.060;2022-12-07T01:49:21;16.58;;;11.07;;
55362;SDS011;41244;49.242;9.060;2022-12-07T01:52:00;15.48;;;11.05;;
55362;SDS011;41244;49.242;9.060;2022-12-07T01:54:51;13.02;;;11.18;;
55362;SDS011;41244;49.242;9.060;2022-12-07T01:57:21;17.73;;;11.70;;
55362;SDS011;41244;49.242;9.060;2022-12-07T01:59:47;13.65;;;10.98;;
55362;SDS011;41244;49.242;9.060;2022-12-07T02:02:19;15.45;;;11.77;;
55362;SDS011;41244;49.242;9.060;2022-12-07T02:04:58;16.25;;;11.52;;
55362;SDS011;41244;49.242;9.060;2022-12-07T02:07:26;17.02;;;11.48;;
55362;SDS011;41244;49.242;9.060;2022-12-07T02:09:53;15.48;;;11.20;;
55362;SDS011;41244;49.242;9.060;2022-12-07T02:12:19;15.20;;;10.95;;
55362;SDS011;41244;49.242;9.060;2022-12-07T02:14:46;16.55;;;12.13;;
55362;SDS011;41244;49.242;9.060;2022-12-07T02:20:17;16.45;;;12.25;;
55362;SDS011;41244;49.242;9.060;2022-12-07T02:25:58;17.15;;;11.80;;
55362;SDS011;41244;49.242;9.060;2022-12-07T02:32:23;16.52;;;12.07;;
55362;SDS011;41244;49.242;9.060;2022-12-07T02:35:17;17.70;;;11.98;;
55362;SDS011;41244;49.242;9.060;2022-12-07T02:37:53;14.90;;;11.40;;
55362;SDS011;41244;49.242;9.060;2022-12-07T02:40:43;18.75;;;12.85;;
55362;SDS011;41244;49.242;9.060;2022-12-07T02:43:21;14.57;;;11.57;;
55362;SDS011;41244;49.242;9.060;2022-12-07T02:45:55;17.27;;;11.80;;
55362;SDS011;41244;49.242;9.060;2022-12-07T02:48:24;14.75;;;11.52;;
55362;SDS011;41244;49.242;9.060;2022-12-07T02:50:52;14.90;;;11.32;;
55362;SDS011;41244;49.242;9.060;2022-12-07T02:59:16;18.25;;;13.07;;
55362;SDS011;41244;49.242;9.060;2022-12-07T03:04:46;21.30;;;14.30;;
55362;SDS011;41244;49.242;9.060;2022-12-07T03:10:29;19.90;;;13.45;;
55362;SDS011;41244;49.242;9.060;2022-12-07T03:13:28;19.25;;;13.90;;
55362;SDS011;41244;49.242;9.060;2022-12-07T03:16:39;20.35;;;13.52;;
55362;SDS011;41244;49.242;9.060;2022-12-07T03:19:15;18.88;;;14.38;;
55362;SDS011;41244;49.242;9.060;2022-12-07T03:21:47;22.75;;;14.85;;
55362;SDS011;41244;49.242;9.060;2022-12-07T03:24:19;19.95;;;14.43;;
55362;SDS011;41244;49.242;9.060;2022-12-07T03:26:54;19.80;;;14.30;;
55362;SDS011;41244;49.242;9.060;2022-12-07T03:29:30;19.45;;;13.05;;
55362;SDS011;41244;49.242;9.060;2022-12-07T03:32:12;21.27;;;14.30;;
55362;SDS011;41244;49.242;9.060;2022-12-07T03:34:46;18.77;;;14.05;;
55362;SDS011;41244;49.242;9.060;2022-12-07T03:37:46;20.42;;;13.88;;
55362;SDS011;41244;49.242;9.060;2022-12-07T03:42:56;21.25;;;14.52;;
55362;SDS011;41244;49.242;9.060;2022-12-07T03:45:33;17.75;;;13.15;;
55362;SDS011;41244;49.242;9.060;2022-12-07T03:51:33;21.13;;;14.00;;
55362;SDS011;41244;49.242;9.060;2022-12-07T03:54:43;15.63;;;13.20;;
55362;SDS011;41244;49.242;9.060;2022-12-07T03:57:22;19.63;;;13.90;;
55362;SDS011;41244;49.242;9.060;2022-12-07T03:59:50;18.63;;;13.98;;
55362;SDS011;41244;49.242;9.060;2022-12-07T04:02:20;17.65;;;13.75;;
55362;SDS011;41244;49.242;9.060;2022-12-07T04:04:46;19.27;;;13.63;;
55362;SDS011;41244;49.242;9.060;2022-12-07T04:07:12;18.70;;;13.57;;
55362;SDS011;41244;49.242;9.060;2022-12-07T04:09:38;18.02;;;13.13;;
55362;SDS011;41244;49.242;9.060;2022-12-07T04:12:07;14.52;;;12.43;;
55362;SDS011;41244;49.242;9.060;2022-12-07T04:14:32;18.98;;;13.52;;
55362;SDS011;41244;49.242;9.060;2022-12-07T04:16:59;20.17;;;13.82;;
55362;SDS011;41244;49.242;9.060;2022-12-07T04:19:29;19.70;;;13.52;;
55362;SDS011;41244;49.242;9.060;2022-12-07T04:21:57;17.65;;;13.88;;
55362;SDS011;41244;49.242;9.060;2022-12-07T04:24:26;19.42;;;13.07;;
55362;SDS011;41244;49.242;9.060;2022-12-07T04:26:55;17.48;;;13.35;;
55362;SDS011;41244;49.242;9.060;2022-12-07T04:29:21;17.33;;;13.65;;
55362;SDS011;41244;49.242;9.060;2022-12-07T04:31:47;19.88;;;12.80;;
55362;SDS011;41244;49.242;9.060;2022-12-07T04:34:14;18.58;;;13.48;;
55362;SDS011;41244;49.242;9.060;2022-12-07T04:36:40;17.13;;;12.60;;
55362;SDS011;41244;49.242;9.060;2022-12-07T04:39:07;18.65;;;12.88;;
55362;SDS011;41244;49.242;9.060;2022-12-07T04:41:56;20.10;;;14.07;;
55362;SDS011;41244;49.242;9.060;2022-12-07T04:44:27;20.98;;;13.75;;
55362;SDS011;41244;49.242;9.060;2022-12-07T04:46:53;19.77;;;13.23;;
55362;SDS011;41244;49.242;9.060;2022-12-07T04:49:20;21.48;;;14.63;;
55362;SDS011;41244;49.242;9.060;2022-12-07T04:51:46;22.90;;;15.18;;
55362;SDS011;41244;49.242;9.060;2022-12-07T04:54:13;22.95;;;15.25;;
55362;SDS011;41244;49.242;9.060;2022-12-07T04:56:39;20.90;;;14.10;;
55362;SDS011;41244;49.242;9.060;2022-12-07T04:59:05;19.67;;;13.75;;
55362;SDS011;41244;49.242;9.060;2022-12-07T05:01:31;22.98;;;14.52;;
55362;SDS011;41244;49.242;9.060;2022-12-07T05:03:58;21.45;;;15.77;;
55362;SDS011;41244;49.242;9.060;2022-12-07T05:06:24;21.27;;;15.55;;
55362;SDS011;41244;49.242;9.060;2022-12-07T05:08:50;21.60;;;14.13;;
55362;SDS011;41244;49.242;9.060;2022-12-07T05:11:16;20.50;;;14.30;;
55362;SDS011;41244;49.242;9.060;2022-12-07T05:14:02;29.67;;;20.70;;
55362;SDS011;41244;49.242;9.060;2022-12-07T05:16:30;22.02;;;15.10;;
55362;SDS011;41244;49.242;9.060;2022-12-07T05:18:56;20.50;;;15.40;;
55362;SDS011;41244;49.242;9.060;2022-12-07T05:21:22;25.17;;;18.73;;
55362;SDS011;41244;49.242;9.060;2022-12-07T05:23:48;19.33;;;15.30;;
55362;SDS011;41244;49.242;9.060;2022-12-07T05:26:13;20.75;;;15.40;;
55362;SDS011;41244;49.242;9.060;2022-12-07T05:28:39;20.80;;;14.60;;
55362;SDS011;41244;49.242;9.060;2022-12-07T05:31:05;18.90;;;14.32;;
55362;SDS011;41244;49.242;9.060;2022-12-07T05:33:34;21.88;;;14.60;;
55362;SDS011;41244;49.242;9.060;2022-12-07T05:36:03;17.23;;;12.95;;
55362;SDS011;41244;49.242;9.060;2022-12-07T05:38:31;19.35;;;14.10;;
55362;SDS011;41244;49.242;9.060;2022-12-07T05:41:04;20.33;;;13.65;;
55362;SDS011;41244;49.242;9.060;2022-12-07T05:43:31;19.10;;;14.63;;
55362;SDS011;41244;49.242;9.060;2022-12-07T05:45:58;20.08;;;13.68;;
55362;SDS011;41244;49.242;9.060;2022-12-07T05:48:24;17.48;;;13.52;;
55362;SDS011;41244;49.242;9.060;2022-12-07T05:50:50;17.05;;;12.85;;
55362;SDS011;41244;49.242;9.060;2022-12-07T05:53:17;18.58;;;13.63;;
55362;SDS011;41244;49.242;9.060;2022-12-07T05:55:43;19.33;;;13.13;;
55362;SDS011;41244;49.242;9.060;2022-12-07T05:58:09;17.50;;;12.73;;
55362;SDS011;41244;49.242;9.060;2022-12-07T06:00:57;19.23;;;13.85;;
55362;SDS011;41244;49.242;9.060;2022-12-07T06:03:22;18.77;;;14.43;;
55362;SDS011;41244;49.242;9.060;2022-12-07T06:05:48;17.35;;;12.70;;
55362;SDS011;41244;49.242;9.060;2022-12-07T06:08:14;17.20;;;13.23;;
55362;SDS011;41244;49.242;9.060;2022-12-07T06:10:40;20.52;;;14.07;;
55362;SDS011;41244;49.242;9.060;2022-12-07T06:13:07;17.00;;;13.00;;
55362;SDS011;41244;49.242;9.060;2022-12-07T06:15:36;17.25;;;12.90;;
55362;SDS011;41244;49.242;9.060;2022-12-07T06:18:02;21.42;;;13.38;;
55362;SDS011;41244;49.242;9.060;2022-12-07T06:20:28;21.73;;;13.05;;
55362;SDS011;41244;49.242;9.060;2022-12-07T06:22:54;19.63;;;13.25;;
55362;SDS011;41244;49.242;9.060;2022-12-07T06:25:20;15.98;;;13.05;;
55362;SDS011;41244;49.242;9.060;2022-12-07T06:27:46;19.10;;;14.00;;
55362;SDS011;41244;49.242;9.060;2022-12-07T06:30:14;16.58;;;12.75;;
55362;SDS011;41244;49.242;9.060;2022-12-07T06:32:40;17.67;;;13.07;;
55362;SDS011;41244;49.242;9.060;2022-12-07T06:35:06;18.33;;;14.32;;
55362;SDS011;41244;49.242;9.060;2022-12-07T06:37:35;19.30;;;12.82;;
55362;SDS011;41244;49.242;9.060;2022-12-07T06:40:00;18.67;;;13.10;;
55362;SDS011;41244;49.242;9.060;2022-12-07T06:42:26;20.98;;;14.02;;
55362;SDS011;41244;49.242;9.060;2022-12-07T06:44:52;18.70;;;13.20;;
55362;SDS011;41244;49.242;9.060;2022-12-07T06:47:18;18.63;;;12.48;;
55362;SDS011;41244;49.242;9.060;2022-12-07T06:49:43;19.70;;;14.82;;
55362;SDS011;41244;49.242;9.060;2022-12-07T06:52:09;16.40;;;12.27;;
55362;SDS011;41244;49.242;9.060;2022-12-07T06:54:35;22.50;;;13.73;;
55362;SDS011;41244;49.242;9.060;2022-12-07T06:57:01;17.65;;;12.63;;
55362;SDS011;41244;49.242;9.060;2022-12-07T06:59:27;15.77;;;12.63;;
55362;SDS011;41244;49.242;9.060;2022-12-07T07:01:52;16.85;;;11.30;;
55362;SDS011;41244;49.242;9.060;2022-12-07T07:04:18;17.50;;;13.05;;
55362;SDS011;41244;49.242;9.060;2022-12-07T07:06:44;18.35;;;12.20;;
55362;SDS011;41244;49.242;9.060;2022-12-07T07:09:10;15.60;;;11.68;;
55362;SDS011;41244;49.242;9.060;2022-12-07T07:11:35;17.17;;;11.65;;
55362;SDS011;41244;49.242;9.060;2022-12-07T07:14:01;18.27;;;12.63;;
55362;SDS011;41244;49.242;9.060;2022-12-07T07:16:28;17.45;;;12.57;;
55362;SDS011;41244;49.242;9.060;2022-12-07T07:18:56;16.83;;;12.35;;
55362;SDS011;41244;49.242;9.060;2022-12-07T07:21:22;17.55;;;13.02;;
55362;SDS011;41244;49.242;9.060;2022-12-07T07:23:48;19.60;;;13.88;;
55362;SDS011;41244;49.242;9.060;2022-12-07T07:26:13;17.40;;;12.55;;
55362;SDS011;41244;49.242;9.060;2022-12-07T07:28:39;16.42;;;12.27;;
55362;SDS011;41244;49.242;9.060;2022-12-07T07:31:05;16.85;;;12.25;;
55362;SDS011;41244;49.242;9.060;2022-12-07T07:33:31;19.27;;;12.55;;
55362;SDS011;41244;49.242;9.060;2022-12-07T07:35:56;17.15;;;13.48;;
55362;SDS011;41244;49.242;9.060;2022-12-07T07:38:22;18.52;;;12.38;;
55362;SDS011;41244;49.242;9.060;2022-12-07T07:40:48;19.17;;;13.05;;
55362;SDS011;41244;49.242;9.060;2022-12-07T07:43:14;16.08;;;12.32;;
55362;SDS011;41244;49.242;9.060;2022-12-07T07:45:40;17.95;;;13.10;;
55362;SDS011;41244;49.242;9.060;2022-12-07T07:48:06;17.38;;;12.35;;
55362;SDS011;41244;49.242;9.060;2022-12-07T07:50:31;22.13;;;13.63;;
55362;SDS011;41244;49.242;9.060;2022-12-07T07:52:57;19.95;;;14.02;;
55362;SDS011;41244;49.242;9.060;2022-12-07T07:55:23;17.90;;;12.82;;
55362;SDS011;41244;49.242;9.060;2022-12-07T07:57:49;16.85;;;12.25;;
55362;SDS011;41244;49.242;9.060;2022-12-07T08:00:15;22.23;;;13.63;;
55362;SDS011;41244;49.242;9.060;2022-12-07T08:02:41;22.15;;;13.20;;
55362;SDS011;41244;49.242;9.060;2022-12-07T08:05:08;22.40;;;13.43;;
55362;SDS011;41244;49.242;9.060;2022-12-07T08:07:37;19.30;;;13.02;;
55362;SDS011;41244;49.242;9.060;2022-12-07T08:10:03;21.35;;;14.55;;
55362;SDS011;41244;49.242;9.060;2022-12-07T08:12:30;18.70;;;13.38;;
55362;SDS011;41244;49.242;9.060;2022-12-07T08:14:56;18.90;;;13.88;;
55362;SDS011;41244;49.242;9.060;2022-12-07T08:17:22;21.23;;;14.98;;
55362;SDS011;41244;49.242;9.060;2022-12-07T08:19:48;22.27;;;15.80;;
55362;SDS011;41244;49.242;9.060;2022-12-07T08:22:14;23.13;;;15.13;;
55362;SDS011;41244;49.242;9.060;2022-12-07T08:24:39;26.15;;;16.75;;
55362;SDS011;41244;49.242;9.060;2022-12-07T08:27:05;22.27;;;14.48;;
55362;SDS011;41244;49.242;9.060;2022-12-07T08:29:31;21.23;;;15.68;;
55362;SDS011;41244;49.242;9.060;2022-12-07T08:31:57;23.98;;;16.40;;
55362;SDS011;41244;49.242;9.060;2022-12-07T08:34:23;31.27;;;20.92;;
55362;SDS011;41244;49.242;9.060;2022-12-07T08:36:48;22.95;;;15.57;;
55362;SDS011;41244;49.242;9.060;2022-12-07T08:39:14;22.58;;;16.25;;
55362;SDS011;41244;49.242;9.060;2022-12-07T08:41:40;24.50;;;16.90;;
55362;SDS011;41244;49.242;9.060;2022-12-07T08:44:09;25.27;;;17.15;;
55362;SDS011;41244;49.242;9.060;2022-12-07T08:46:36;22.85;;;15.90;;
55362;SDS011;41244;49.242;9.060;2022-12-07T08:49:35;20.48;;;15.25;;
55362;SDS011;41244;49.242;9.060;2022-12-07T08:52:05;21.85;;;14.90;;
55362;SDS011;41244;49.242;9.060;2022-12-07T08:54:31;21.25;;;15.23;;
55362;SDS011;41244;49.242;9.060;2022-12-07T08:57:00;18.48;;;13.82;;
55362;SDS011;41244;49.242;9.060;2022-12-07T08:59:26;21.60;;;14.65;;
55362;SDS011;41244;49.242;9.060;2022-12-07T09:01:52;21.05;;;14.20;;
55362;SDS011;41244;49.242;9.060;2022-12-07T09:04:18;19.95;;;14.85;;
55362;SDS011;41244;49.242;9.060;2022-12-07T09:06:45;18.38;;;13.52;;
55362;SDS011;41244;49.242;9.060;2022-12-07T09:09:11;20.33;;;15.05;;
55362;SDS011;41244;49.242;9.060;2022-12-07T09:11:39;18.40;;;13.95;;
55362;SDS011;41244;49.242;9.060;2022-12-07T09:14:05;18.67;;;13.05;;
55362;SDS011;41244;49.242;9.060;2022-12-07T09:16:31;17.98;;;13.70;;
55362;SDS011;41244;49.242;9.060;2022-12-07T09:19:00;18.88;;;13.00;;
55362;SDS011;41244;49.242;9.060;2022-12-07T09:21:26;19.17;;;14.25;;
55362;SDS011;41244;49.242;9.060;2022-12-07T09:23:52;19.58;;;14.10;;
55362;SDS011;41244;49.242;9.060;2022-12-07T09:26:21;21.38;;;13.63;;
55362;SDS011;41244;49.242;9.060;2022-12-07T09:28:47;20.77;;;13.73;;
55362;SDS011;41244;49.242;9.060;2022-12-07T09:31:12;17.75;;;13.50;;
55362;SDS011;41244;49.242;9.060;2022-12-07T09:33:38;17.67;;;13.20;;
55362;SDS011;41244;49.242;9.060;2022-12-07T09:36:04;18.35;;;13.68;;
55362;SDS011;41244;49.242;9.060;2022-12-07T09:38:33;18.92;;;13.85;;
55362;SDS011;41244;49.242;9.060;2022-12-07T09:41:04;16.70;;;12.52;;
55362;SDS011;41244;49.242;9.060;2022-12-07T09:43:32;18.50;;;13.52;;
55362;SDS011;41244;49.242;9.060;2022-12-07T09:46:00;20.98;;;13.70;;
55362;SDS011;41244;49.242;9.060;2022-12-07T09:48:29;18.15;;;12.07;;
55362;SDS011;41244;49.242;9.060;2022-12-07T09:51:10;20.40;;;13.50;;
55362;SDS011;41244;49.242;9.060;2022-12-07T09:53:41;19.60;;;13.40;;
55362;SDS011;41244;49.242;9.060;2022-12-07T09:56:09;17.88;;;12.88;;
55362;SDS011;41244;49.242;9.060;2022-12-07T09:58:38;17.48;;;13.82;;
55362;SDS011;41244;49.242;9.060;2022-12-07T10:03:34;20.55;;;13.73;;
55362;SDS011;41244;49.242;9.060;2022-12-07T10:06:01;17.00;;;13.25;;
55362;SDS011;41244;49.242;9.060;2022-12-07T10:08:27;30.25;;;26.88;;
55362;SDS011;41244;49.242;9.060;2022-12-07T10:10:54;22.70;;;16.10;;
55362;SDS011;41244;49.242;9.060;2022-12-07T10:16:43;20.17;;;15.18;;
55362;SDS011;41244;49.242;9.060;2022-12-07T10:21:48;17.15;;;13.52;;
55362;SDS011;41244;49.242;9.060;2022-12-07T10:24:24;15.15;;;11.95;;
55362;SDS011;41244;49.242;9.060;2022-12-07T10:26:50;15.32;;;11.38;;
55362;SDS011;41244;49.242;9.060;2022-12-07T10:29:38;16.55;;;11.70;;
55362;SDS011;41244;49.242;9.060;2022-12-07T10:32:05;19.20;;;12.38;;
55362;SDS011;41244;49.242;9.060;2022-12-07T10:35:15;17.20;;;12.10;;
55362;SDS011;41244;49.242;9.060;2022-12-07T10:37:48;16.65;;;12.57;;
55362;SDS011;41244;49.242;9.060;2022-12-07T10:40:36;18.67;;;12.93;;
55362;SDS011;41244;49.242;9.060;2022-12-07T11:03:47;22.98;;;16.08;;
55362;SDS011;41244;49.242;9.060;2022-12-07T11:06:39;17.17;;;13.20;;
55362;SDS011;41244;49.242;9.060;2022-12-07T11:09:27;18.65;;;13.70;;
55362;SDS011;41244;49.242;9.060;2022-12-07T11:38:43;16.70;;;12.15;;
55362;SDS011;41244;49.242;9.060;2022-12-07T11:41:17;19.45;;;13.13;;
55362;SDS011;41244;49.242;9.060;2022-12-07T11:43:59;16.83;;;12.98;;
55362;SDS011;41244;49.242;9.060;2022-12-07T11:52:09;19.63;;;14.38;;
55362;SDS011;41244;49.242;9.060;2022-12-07T11:55:16;18.25;;;15.00;;
55362;SDS011;41244;49.242;9.060;2022-12-07T12:00:47;19.75;;;15.20;;
55362;SDS011;41244;49.242;9.060;2022-12-07T12:03:15;21.17;;;15.20;;
55362;SDS011;41244;49.242;9.060;2022-12-07T12:05:55;17.27;;;12.82;;
55362;SDS011;41244;49.242;9.060;2022-12-07T12:08:24;17.80;;;13.35;;
55362;SDS011;41244;49.242;9.060;2022-12-07T12:11:00;17.88;;;13.60;;
55362;SDS011;41244;49.242;9.060;2022-12-07T12:17:00;19.83;;;14.75;;
55362;SDS011;41244;49.242;9.060;2022-12-07T12:22:55;18.17;;;13.70;;
55362;SDS011;41244;49.242;9.060;2022-12-07T12:25:29;17.38;;;12.35;;
55362;SDS011;41244;49.242;9.060;2022-12-07T12:28:15;17.30;;;13.07;;
55362;SDS011;41244;49.242;9.060;2022-12-07T12:33:44;16.38;;;12.50;;
55362;SDS011;41244;49.242;9.060;2022-12-07T12:46:53;19.40;;;13.40;;
55362;SDS011;41244;49.242;9.060;2022-12-07T12:49:32;19.80;;;14.23;;
55362;SDS011;41244;49.242;9.060;2022-12-07T12:54:29;19.70;;;14.23;;
55362;SDS011;41244;49.242;9.060;2022-12-07T13:02:20;16.95;;;13.23;;
55362;SDS011;41244;49.242;9.060;2022-12-07T13:04:52;15.95;;;12.55;;
55362;SDS011;41244;49.242;9.060;2022-12-07T13:26:17;17.45;;;13.38;;
55362;SDS011;41244;49.242;9.060;2022-12-07T13:34:32;16.27;;;12.95;;
55362;SDS011;41244;49.242;9.060;2022-12-07T13:37:08;21.15;;;14.13;;
55362;SDS011;41244;49.242;9.060;2022-12-07T13:39:52;21.98;;;13.68;;
55362;SDS011;41244;49.242;9.060;2022-12-07T13:42:28;19.15;;;13.82;;
55362;SDS011;41244;49.242;9.060;2022-12-07T13:44:59;17.67;;;14.10;;
55362;SDS011;41244;49.242;9.060;2022-12-07T13:47:53;19.50;;;13.25;;
55362;SDS011;41244;49.242;9.060;2022-12-07T13:50:22;17.60;;;12.70;;
55362;SDS011;41244;49.242;9.060;2022-12-07T13:52:59;18.08;;;13.35;;
55362;SDS011;41244;49.242;9.060;2022-12-07T13:55:36;18.33;;;12.85;;
55362;SDS011;41244;49.242;9.060;2022-12-07T13:58:10;17.65;;;13.15;;
55362;SDS011;41244;49.242;9.060;2022-12-07T14:00:36;19.23;;;13.30;;
55362;SDS011;41244;49.242;9.060;2022-12-07T14:05:39;17.20;;;12.32;;
55362;SDS011;41244;49.242;9.060;2022-12-07T14:19:05;18.83;;;13.38;;
55362;SDS011;41244;49.242;9.060;2022-12-07T14:22:07;16.13;;;13.07;;
55362;SDS011;41244;49.242;9.060;2022-12-07T14:24:43;19.02;;;13.15;;
55362;SDS011;41244;49.242;9.060;2022-12-07T14:27:19;18.67;;;12.90;;
55362;SDS011;41244;49.242;9.060;2022-12-07T14:29:53;16.73;;;12.60;;
55362;SDS011;41244;49.242;9.060;2022-12-07T14:32:26;21.13;;;13.70;;
55362;SDS011;41244;49.242;9.060;2022-12-07T14:34:58;34.42;;;16.73;;
55362;SDS011;41244;49.242;9.060;2022-12-07T14:37:26;21.30;;;14.50;;
55362;SDS011;41244;49.242;9.060;2022-12-07T14:39:53;19.88;;;14.63;;
55362;SDS011;41244;49.242;9.060;2022-12-07T14:42:19;20.30;;;13.75;;
55362;SDS011;41244;49.242;9.060;2022-12-07T14:44:45;18.98;;;13.60;;
55362;SDS011;41244;49.242;9.060;2022-12-07T14:47:11;18.58;;;13.52;;
55362;SDS011;41244;49.242;9.060;2022-12-07T14:49:37;17.92;;;12.68;;
55362;SDS011;41244;49.242;9.060;2022-12-07T14:52:03;19.52;;;13.77;;
55362;SDS011;41244;49.242;9.060;2022-12-07T14:54:31;17.55;;;13.65;;
55362;SDS011;41244;49.242;9.060;2022-12-07T14:56:57;21.10;;;14.98;;
55362;SDS011;41244;49.242;9.060;2022-12-07T14:59:23;23.35;;;14.15;;
55362;SDS011;41244;49.242;9.060;2022-12-07T15:01:49;23.85;;;14.93;;
55362;SDS011;41244;49.242;9.060;2022-12-07T15:04:15;21.33;;;14.38;;
55362;SDS011;41244;49.242;9.060;2022-12-07T15:06:41;17.70;;;13.23;;
55362;SDS011;41244;49.242;9.060;2022-12-07T15:09:10;23.33;;;14.23;;
55362;SDS011;41244;49.242;9.060;2022-12-07T15:11:36;21.30;;;14.57;;
55362;SDS011;41244;49.242;9.060;2022-12-07T15:14:02;18.92;;;13.38;;
55362;SDS011;41244;49.242;9.060;2022-12-07T15:16:34;18.95;;;13.65;;
55362;SDS011;41244;49.242;9.060;2022-12-07T15:19:01;20.27;;;14.00;;
55362;SDS011;41244;49.242;9.060;2022-12-07T15:21:27;18.55;;;14.13;;
55362;SDS011;41244;49.242;9.060;2022-12-07T15:23:53;19.05;;;12.85;;
55362;SDS011;41244;49.242;9.060;2022-12-07T15:26:19;21.70;;;13.73;;
55362;SDS011;41244;49.242;9.060;2022-12-07T15:28:45;20.17;;;13.88;;
55362;SDS011;41244;49.242;9.060;2022-12-07T15:31:11;20.77;;;13.98;;
55362;SDS011;41244;49.242;9.060;2022-12-07T15:33:41;23.20;;;14.38;;
55362;SDS011;41244;49.242;9.060;2022-12-07T15:36:08;20.40;;;15.10;;
55362;SDS011;41244;49.242;9.060;2022-12-07T15:41:18;19.67;;;14.23;;
55362;SDS011;41244;49.242;9.060;2022-12-07T15:43:44;22.02;;;15.00;;
55362;SDS011;41244;49.242;9.060;2022-12-07T15:48:55;21.38;;;14.75;;
55362;SDS011;41244;49.242;9.060;2022-12-07T15:51:21;22.88;;;14.85;;
55362;SDS011;41244;49.242;9.060;2022-12-07T15:53:47;23.40;;;15.05;;
55362;SDS011;41244;49.242;9.060;2022-12-07T15:56:13;21.02;;;15.50;;
55362;SDS011;41244;49.242;9.060;2022-12-07T15:58:39;24.95;;;15.73;;
55362;SDS011;41244;49.242;9.060;2022-12-07T16:01:14;24.45;;;16.58;;
55362;SDS011;41244;49.242;9.060;2022-12-07T16:03:43;23.90;;;15.95;;
55362;SDS011;41244;49.242;9.060;2022-12-07T16:06:09;25.05;;;16.58;;
55362;SDS011;41244;49.242;9.060;2022-12-07T16:08:35;23.15;;;15.27;;
55362;SDS011;41244;49.242;9.060;2022-12-07T16:11:07;26.55;;;15.27;;
55362;SDS011;41244;49.242;9.060;2022-12-07T16:13:33;25.60;;;17.88;;
55362;SDS011;41244;49.242;9.060;2022-12-07T16:16:03;24.95;;;16.58;;
55362;SDS011;41244;49.242;9.060;2022-12-07T16:18:35;26.33;;;17.50;;
55362;SDS011;41244;49.242;9.060;2022-12-07T16:21:01;24.33;;;15.98;;
55362;SDS011;41244;49.242;9.060;2022-12-07T16:23:27;24.45;;;18.02;;
55362;SDS011;41244;49.242;9.060;2022-12-07T16:25:53;24.55;;;15.52;;
55362;SDS011;41244;49.242;9.060;2022-12-07T16:28:40;20.98;;;15.68;;
55362;SDS011;41244;49.242;9.060;2022-12-07T16:31:14;24.30;;;16.20;;
55362;SDS011;41244;49.242;9.060;2022-12-07T16:33:42;26.08;;;17.65;;
55362;SDS011;41244;49.242;9.060;2022-12-07T16:36:09;21.05;;;14.02;;
55362;SDS011;41244;49.242;9.060;2022-12-07T16:38:37;21.38;;;15.02;;
55362;SDS011;41244;49.242;9.060;2022-12-07T16:41:04;23.83;;;16.13;;
55362;SDS011;41244;49.242;9.060;2022-12-07T16:43:31;22.50;;;15.73;;
55362;SDS011;41244;49.242;9.060;2022-12-07T16:45:57;24.17;;;16.05;;
55362;SDS011;41244;49.242;9.060;2022-12-07T16:48:23;24.58;;;16.48;;
55362;SDS011;41244;49.242;9.060;2022-12-07T16:50:49;22.55;;;15.60;;
55362;SDS011;41244;49.242;9.060;2022-12-07T16:53:14;26.45;;;17.23;;
55362;SDS011;41244;49.242;9.060;2022-12-07T16:55:44;25.80;;;16.90;;
55362;SDS011;41244;49.242;9.060;2022-12-07T16:58:11;23.40;;;15.57;;
55362;SDS011;41244;49.242;9.060;2022-12-07T17:00:38;27.20;;;18.63;;
55362;SDS011;41244;49.242;9.060;2022-12-07T17:03:04;23.42;;;16.60;;
55362;SDS011;41244;49.242;9.060;2022-12-07T17:05:30;27.67;;;16.65;;
55362;SDS011;41244;49.242;9.060;2022-12-07T17:07:56;23.80;;;16.60;;
55362;SDS011;41244;49.242;9.060;2022-12-07T17:10:23;24.83;;;16.13;;
55362;SDS011;41244;49.242;9.060;2022-12-07T17:12:49;24.58;;;16.90;;
55362;SDS011;41244;49.242;9.060;2022-12-07T17:15:15;22.13;;;16.25;;
55362;SDS011;41244;49.242;9.060;2022-12-07T17:17:42;25.95;;;17.15;;
55362;SDS011;41244;49.242;9.060;2022-12-07T17:20:22;24.98;;;16.35;;
55362;SDS011;41244;49.242;9.060;2022-12-07T17:22:50;24.08;;;17.25;;
55362;SDS011;41244;49.242;9.060;2022-12-07T17:25:16;23.70;;;15.77;;
55362;SDS011;41244;49.242;9.060;2022-12-07T17:27:45;22.58;;;16.85;;